createdAt,value
2024-05-09T05:01:44.148Z,532.00
2024-05-09T05:02:21.649Z,530.00
2024-05-09T05:03:22.052Z,531.00
2024-05-09T05:04:21.812Z,531.00
2024-05-09T05:05:21.712Z,531.00
2024-05-09T05:06:21.618Z,531.00
2024-05-09T05:07:21.623Z,531.00
2024-05-09T05:08:21.649Z,529.00
2024-05-09T05:09:21.636Z,527.00
2024-05-09T05:10:29.439Z,526.00
2024-05-09T05:11:22.724Z,526.00
2024-05-09T05:12:21.769Z,524.00
2024-05-09T05:13:22.664Z,522.00
2024-05-09T05:14:21.654Z,522.00
2024-05-09T05:15:21.602Z,522.00
2024-05-09T05:16:21.646Z,523.00
2024-05-09T05:17:21.689Z,522.00
2024-05-09T05:18:21.989Z,521.00
2024-05-09T05:19:21.724Z,520.00
2024-05-09T05:20:27.859Z,519.00
2024-05-09T05:21:22.783Z,519.00
2024-05-09T05:22:21.669Z,519.00
2024-05-09T05:23:21.816Z,521.00
2024-05-09T05:24:21.783Z,521.00
2024-05-09T05:25:21.752Z,521.00
2024-05-09T05:26:21.757Z,520.00
2024-05-09T05:27:21.660Z,519.00
2024-05-09T05:28:21.794Z,519.00
2024-05-09T05:29:21.730Z,520.00
2024-05-09T05:30:28.681Z,519.00
2024-05-09T05:31:22.737Z,520.00
2024-05-09T05:32:21.947Z,519.00
2024-05-09T05:33:21.911Z,518.00
2024-05-09T05:34:21.829Z,518.00
2024-05-09T05:35:21.805Z,516.00
2024-05-09T05:36:21.929Z,517.00
2024-05-09T05:37:21.698Z,517.00
2024-05-09T05:38:24.813Z,521.00
2024-05-09T05:39:22.725Z,521.00
2024-05-09T05:40:28.600Z,519.00
2024-05-09T05:41:22.761Z,524.00
2024-05-09T05:42:21.792Z,524.00
2024-05-09T05:43:21.816Z,524.00
2024-05-09T05:44:21.774Z,522.00
2024-05-09T05:45:21.825Z,520.00
2024-05-09T05:46:21.796Z,516.00
2024-05-09T05:47:21.876Z,515.00
2024-05-09T05:48:22.008Z,513.00
2024-05-09T05:49:21.881Z,511.00
2024-05-09T05:50:27.910Z,511.00
2024-05-09T05:51:22.885Z,511.00
2024-05-09T05:52:21.847Z,511.00
2024-05-09T05:53:21.948Z,511.00
2024-05-09T05:54:21.818Z,510.00
2024-05-09T05:55:21.780Z,509.00
2024-05-09T05:56:21.901Z,509.00
2024-05-09T05:57:21.854Z,505.00
2024-05-09T05:58:21.856Z,504.00
2024-05-09T05:59:21.826Z,507.00
2024-05-09T06:00:29.530Z,507.00
2024-05-09T06:01:22.861Z,506.00
2024-05-09T06:02:21.962Z,507.00
2024-05-09T06:03:22.038Z,507.00
2024-05-09T06:04:21.854Z,506.00
2024-05-09T06:05:22.182Z,508.00
2024-05-09T06:06:21.869Z,510.00
2024-05-09T06:07:22.015Z,510.00
2024-05-09T06:08:21.949Z,509.00
2024-05-09T06:09:21.907Z,508.00
2024-05-09T06:10:26.262Z,508.00
2024-05-09T06:11:22.939Z,507.00
2024-05-09T06:12:21.955Z,508.00
2024-05-09T06:13:21.889Z,507.00
2024-05-09T06:14:21.855Z,507.00
2024-05-09T06:15:21.846Z,507.00
2024-05-09T06:16:21.872Z,508.00
2024-05-09T06:17:21.999Z,508.00
2024-05-09T06:18:22.230Z,506.00
2024-05-09T06:19:22.086Z,503.00
2024-05-09T06:20:31.532Z,504.00
2024-05-09T06:21:22.988Z,508.00
2024-05-09T06:22:21.945Z,508.00
2024-05-09T06:23:22.001Z,510.00
2024-05-09T06:24:21.902Z,511.00
2024-05-09T06:25:21.923Z,509.00
2024-05-09T06:26:22.023Z,508.00
2024-05-09T06:27:21.938Z,506.00
2024-05-09T06:28:21.974Z,506.00
2024-05-09T06:29:22.023Z,508.00
2024-05-09T06:30:29.919Z,509.00
2024-05-09T06:31:22.943Z,511.00
2024-05-09T06:32:22.176Z,511.00
2024-05-09T06:33:22.186Z,508.00
2024-05-09T06:34:22.040Z,508.00
2024-05-09T06:35:22.005Z,508.00
2024-05-09T06:36:21.950Z,508.00
2024-05-09T06:37:22.011Z,507.00
2024-05-09T06:38:22.109Z,508.00
2024-05-09T06:39:22.012Z,508.00
2024-05-09T06:40:25.871Z,507.00
2024-05-09T06:41:23.008Z,508.00
2024-05-09T06:42:21.955Z,507.00
2024-05-09T06:43:22.026Z,505.00
2024-05-09T06:44:22.050Z,503.00
2024-05-09T06:45:22.016Z,505.00
2024-05-09T06:46:21.952Z,504.00
2024-05-09T06:47:22.101Z,505.00
2024-05-09T06:48:22.727Z,504.00
2024-05-09T06:49:22.109Z,504.00
2024-05-09T06:50:24.424Z,502.00
2024-05-09T06:51:23.049Z,501.00
2024-05-09T06:52:21.954Z,501.00
2024-05-09T06:53:22.054Z,500.00
2024-05-09T06:54:21.972Z,497.00
2024-05-09T06:55:21.969Z,496.00
2024-05-09T06:56:22.039Z,496.00
2024-05-09T06:57:21.985Z,496.00
2024-05-09T06:58:21.984Z,497.00
2024-05-09T06:59:22.000Z,496.00
2024-05-09T07:00:27.759Z,498.00
2024-05-09T07:01:23.079Z,497.00
2024-05-09T07:02:22.077Z,495.00
2024-05-09T07:03:22.137Z,496.00
2024-05-09T07:04:22.080Z,494.00
2024-05-09T07:05:22.137Z,495.00
2024-05-09T07:06:22.017Z,495.00
2024-05-09T07:07:22.003Z,495.00
2024-05-09T07:08:22.086Z,493.00
2024-05-09T07:09:22.012Z,493.00
2024-05-09T07:10:28.871Z,495.00
2024-05-09T07:11:23.130Z,494.00
2024-05-09T07:12:22.073Z,491.00
2024-05-09T07:13:22.027Z,494.00
2024-05-09T07:14:22.124Z,496.00
2024-05-09T07:15:22.081Z,497.00
2024-05-09T07:16:22.084Z,496.00
2024-05-09T07:17:22.180Z,496.00
2024-05-09T07:18:22.218Z,498.00
2024-05-09T07:19:22.163Z,500.00
2024-05-09T07:20:31.664Z,500.00
2024-05-09T07:21:23.144Z,499.00
2024-05-09T07:22:22.084Z,499.00
2024-05-09T07:23:22.174Z,499.00
2024-05-09T07:24:22.093Z,498.00
2024-05-09T07:25:22.074Z,499.00
2024-05-09T07:26:22.128Z,498.00
2024-05-09T07:27:22.102Z,498.00
2024-05-09T07:28:22.113Z,496.00
2024-05-09T07:29:22.102Z,499.00
2024-05-09T07:30:27.612Z,498.00
2024-05-09T07:31:23.161Z,497.00
2024-05-09T07:32:22.346Z,495.00
2024-05-09T07:33:24.704Z,497.00
2024-05-09T07:34:22.371Z,498.00
2024-05-09T07:35:22.292Z,498.00
2024-05-09T07:36:22.158Z,497.00
2024-05-09T07:37:22.171Z,499.00
2024-05-09T07:38:22.226Z,497.00
2024-05-09T07:39:22.164Z,494.00
2024-05-09T07:40:31.715Z,492.00
2024-05-09T07:41:23.214Z,490.00
2024-05-09T07:42:22.180Z,488.00
2024-05-09T07:43:22.198Z,488.00
2024-05-09T07:44:22.214Z,488.00
2024-05-09T07:45:40.539Z,491.00
2024-05-09T07:47:14.657Z,491.00
2024-05-09T07:48:32.144Z,491.00
2024-05-09T07:53:30.369Z,490.00
2024-05-09T07:53:39.554Z,488.00
2024-05-09T07:54:23.380Z,486.00
2024-05-09T07:55:22.302Z,488.00
2024-05-09T07:56:23.811Z,489.00
2024-05-09T07:57:22.313Z,490.00
2024-05-09T07:58:22.214Z,492.00
2024-05-09T07:59:22.216Z,492.00
2024-05-09T08:00:29.521Z,492.00
2024-05-09T08:01:23.305Z,491.00
2024-05-09T08:02:22.393Z,492.00
2024-05-09T08:03:22.313Z,493.00
2024-05-09T08:04:25.097Z,491.00
2024-05-09T08:05:22.377Z,490.00
2024-05-09T08:06:22.263Z,488.00
2024-05-09T08:07:22.310Z,491.00
2024-05-09T08:08:22.243Z,493.00
2024-05-09T08:09:22.231Z,495.00
2024-05-09T08:10:27.325Z,494.00
2024-05-09T08:11:23.273Z,497.00
2024-05-09T08:12:22.239Z,499.00
2024-05-09T08:13:22.320Z,497.00
2024-05-09T08:14:22.247Z,498.00
2024-05-09T08:15:22.267Z,497.00
2024-05-09T08:16:22.467Z,498.00
2024-05-09T08:17:22.335Z,499.00
2024-05-09T08:18:22.317Z,500.00
2024-05-09T08:19:22.334Z,498.00
2024-05-09T08:20:30.310Z,500.00
2024-05-09T08:21:23.258Z,502.00
2024-05-09T08:22:22.253Z,500.00
2024-05-09T08:23:22.247Z,500.00
2024-05-09T08:24:22.236Z,500.00
2024-05-09T08:25:22.330Z,499.00
2024-05-09T08:26:22.289Z,499.00
2024-05-09T08:27:22.295Z,497.00
2024-05-09T08:28:22.335Z,497.00
2024-05-09T08:29:22.279Z,499.00
2024-05-09T08:30:30.001Z,501.00
2024-05-09T08:31:23.481Z,502.00
2024-05-09T08:32:22.386Z,501.00
2024-05-09T08:33:22.395Z,501.00
2024-05-09T08:34:22.411Z,498.00
2024-05-09T08:35:22.327Z,498.00
2024-05-09T08:36:22.356Z,498.00
2024-05-09T08:37:26.009Z,499.00
2024-05-09T08:38:23.380Z,500.00
2024-05-09T08:39:22.348Z,501.00
2024-05-09T08:40:30.657Z,503.00
2024-05-09T08:41:23.362Z,501.00
2024-05-09T08:42:22.343Z,499.00
2024-05-09T08:43:22.484Z,500.00
2024-05-09T08:44:22.348Z,497.00
2024-05-09T08:45:22.330Z,495.00
2024-05-09T08:46:22.391Z,495.00
2024-05-09T08:47:22.423Z,496.00
2024-05-09T08:48:22.433Z,498.00
2024-05-09T08:49:22.402Z,500.00
2024-05-09T08:50:31.986Z,502.00
2024-05-09T08:51:23.472Z,500.00
2024-05-09T08:52:22.476Z,502.00
2024-05-09T08:53:22.477Z,501.00
2024-05-09T08:54:22.493Z,501.00
2024-05-09T08:55:22.473Z,502.00
2024-05-09T08:56:22.473Z,501.00
2024-05-09T08:57:22.484Z,504.00
2024-05-09T08:58:22.527Z,505.00
2024-05-09T08:59:22.490Z,504.00
2024-05-09T09:00:29.806Z,503.00
2024-05-09T09:01:23.683Z,504.00
2024-05-09T09:02:22.767Z,503.00
2024-05-09T09:03:22.615Z,502.00
2024-05-09T09:04:22.671Z,501.00
2024-05-09T09:05:22.627Z,500.00
2024-05-09T09:06:22.561Z,500.00
2024-05-09T09:07:22.603Z,499.00
2024-05-09T09:08:22.544Z,501.00
2024-05-09T09:09:22.570Z,503.00
2024-05-09T09:10:29.650Z,502.00
2024-05-09T09:11:23.645Z,502.00
2024-05-09T09:12:22.696Z,504.00
2024-05-09T09:13:22.694Z,503.00
2024-05-09T09:14:22.605Z,503.00
2024-05-09T09:15:22.715Z,503.00
2024-05-09T09:16:22.818Z,503.00
2024-05-09T09:17:22.728Z,501.00
2024-05-09T09:18:22.755Z,501.00
2024-05-09T09:19:22.813Z,503.00
2024-05-09T09:20:28.772Z,501.00
2024-05-09T09:21:23.613Z,498.00
2024-05-09T09:22:22.616Z,496.00
2024-05-09T09:23:22.608Z,495.00
2024-05-09T09:24:22.614Z,498.00
2024-05-09T09:25:22.623Z,501.00
2024-05-09T09:26:22.654Z,501.00
2024-05-09T09:27:22.651Z,502.00
2024-05-09T09:28:30.122Z,494.00
2024-05-09T09:29:29.942Z,492.00
2024-05-09T09:30:36.510Z,494.00
2024-05-09T09:31:31.150Z,496.00
2024-05-09T09:32:29.993Z,497.00
2024-05-09T09:33:30.053Z,498.00
2024-05-09T09:34:30.058Z,498.00
2024-05-09T09:35:29.936Z,500.00
2024-05-09T09:36:29.996Z,499.00
2024-05-09T09:37:29.973Z,498.00
2024-05-09T09:38:29.962Z,501.00
2024-05-09T09:39:30.018Z,499.00
2024-05-09T09:40:32.923Z,499.00
2024-05-09T09:41:29.984Z,500.00
2024-05-09T09:42:30.064Z,501.00
2024-05-09T09:43:30.007Z,502.00
2024-05-09T09:44:30.008Z,501.00
2024-05-09T09:45:30.084Z,500.00
2024-05-09T09:46:30.176Z,499.00
2024-05-09T09:47:30.083Z,500.00
2024-05-09T09:48:34.844Z,500.00
2024-05-09T09:49:30.052Z,500.00
2024-05-09T09:50:34.424Z,501.00
2024-05-09T09:51:31.012Z,502.00
2024-05-09T09:52:30.057Z,501.00
2024-05-09T09:53:30.019Z,502.00
2024-05-09T09:54:30.032Z,499.00
2024-05-09T09:55:30.027Z,502.00
2024-05-09T09:56:30.018Z,498.00
2024-05-09T09:57:30.070Z,497.00
2024-05-09T09:58:30.164Z,497.00
2024-05-09T09:59:30.038Z,497.00
2024-05-09T10:00:33.139Z,500.00
2024-05-09T10:01:30.054Z,502.00
2024-05-09T10:02:30.107Z,503.00
2024-05-09T10:03:30.158Z,504.00
2024-05-09T10:04:30.110Z,504.00
2024-05-09T10:05:30.442Z,504.00
2024-05-09T10:06:30.067Z,506.00
2024-05-09T10:07:30.039Z,505.00
2024-05-09T10:08:30.034Z,505.00
2024-05-09T10:09:30.048Z,503.00
2024-05-09T10:10:32.673Z,499.00
2024-05-09T10:11:30.226Z,497.00
2024-05-09T10:12:30.174Z,497.00
2024-05-09T10:13:30.068Z,496.00
2024-05-09T10:14:30.034Z,497.00
2024-05-09T10:15:30.135Z,496.00
2024-05-09T10:16:30.103Z,495.00
2024-05-09T10:17:30.076Z,497.00
2024-05-09T10:18:31.985Z,497.00
2024-05-09T10:19:30.172Z,496.00
2024-05-09T10:20:32.678Z,494.00
2024-05-09T10:21:30.101Z,495.00
2024-05-09T10:22:30.047Z,494.00
2024-05-09T10:23:30.059Z,495.00
2024-05-09T10:24:30.093Z,496.00
2024-05-09T10:25:30.107Z,497.00
2024-05-09T10:26:30.029Z,497.00
2024-05-09T10:27:30.058Z,498.00
2024-05-09T10:28:30.061Z,499.00
2024-05-09T10:29:30.043Z,499.00
2024-05-09T10:30:35.747Z,501.00
2024-05-09T10:31:31.090Z,504.00
2024-05-09T10:32:30.106Z,505.00
2024-05-09T10:33:30.172Z,504.00
2024-05-09T10:34:30.178Z,504.00
2024-05-09T10:35:30.085Z,503.00
2024-05-09T10:36:30.112Z,501.00
2024-05-09T10:37:30.084Z,500.00
2024-05-09T10:38:30.066Z,500.00
2024-05-09T10:39:30.118Z,499.00
2024-05-09T10:40:31.741Z,497.00
2024-05-09T10:41:30.069Z,497.00
2024-05-09T10:42:30.178Z,497.00
2024-05-09T10:43:30.191Z,497.00
2024-05-09T10:44:30.163Z,498.00
2024-05-09T10:45:30.254Z,498.00
2024-05-09T10:46:30.319Z,498.00
2024-05-09T10:47:30.436Z,499.00
2024-05-09T10:48:30.608Z,499.00
2024-05-09T10:49:30.581Z,500.00
2024-05-09T10:50:34.167Z,500.00
2024-05-09T10:51:30.746Z,501.00
2024-05-09T10:52:30.681Z,501.00
2024-05-09T10:53:30.671Z,501.00
2024-05-09T10:54:30.726Z,502.00
2024-05-09T10:55:30.712Z,502.00
2024-05-09T10:56:30.666Z,501.00
2024-05-09T10:57:30.683Z,501.00
2024-05-09T10:58:30.654Z,498.00
2024-05-09T10:59:30.645Z,498.00
2024-05-09T11:00:35.660Z,497.00
2024-05-09T11:01:31.848Z,497.00
2024-05-09T11:02:30.846Z,498.00
2024-05-09T11:03:30.876Z,497.00
2024-05-09T11:04:30.704Z,495.00
2024-05-09T11:05:30.730Z,496.00
2024-05-09T11:06:30.688Z,498.00
2024-05-09T11:07:30.766Z,497.00
2024-05-09T11:08:30.666Z,497.00
2024-05-09T11:09:30.738Z,497.00
2024-05-09T11:10:34.048Z,498.00
2024-05-09T11:11:30.673Z,500.00
2024-05-09T11:12:30.695Z,498.00
2024-05-09T11:13:30.823Z,499.00
2024-05-09T11:14:30.654Z,498.00
2024-05-09T11:15:30.777Z,498.00
2024-05-09T11:16:30.757Z,499.00
2024-05-09T11:17:30.774Z,501.00
2024-05-09T11:18:34.660Z,500.00
2024-05-09T11:19:31.765Z,500.00
2024-05-09T11:20:34.792Z,501.00
2024-05-09T11:21:30.713Z,503.00
2024-05-09T11:22:30.696Z,499.00
2024-05-09T11:23:30.918Z,499.00
2024-05-09T11:24:30.762Z,498.00
2024-05-09T11:25:30.681Z,497.00
2024-05-09T11:26:30.685Z,497.00
2024-05-09T11:27:30.709Z,496.00
2024-05-09T11:28:30.675Z,497.00
2024-05-09T11:29:30.696Z,497.00
2024-05-09T11:30:32.333Z,493.00
2024-05-09T11:31:30.818Z,491.00
2024-05-09T11:32:30.864Z,487.00
2024-05-09T11:33:30.779Z,485.00
2024-05-09T11:34:30.765Z,485.00
2024-05-09T11:35:30.691Z,486.00
2024-05-09T11:36:30.757Z,486.00
2024-05-09T11:37:31.347Z,489.00
2024-05-09T11:38:30.706Z,489.00
2024-05-09T11:39:30.769Z,490.00
2024-05-09T11:40:34.251Z,492.00
2024-05-09T11:41:30.741Z,494.00
2024-05-09T11:42:30.841Z,496.00
2024-05-09T11:43:30.881Z,497.00
2024-05-09T11:44:30.743Z,498.00
2024-05-09T11:45:30.794Z,497.00
2024-05-09T11:46:30.756Z,498.00
2024-05-09T11:47:30.845Z,494.00
2024-05-09T11:48:30.974Z,494.00
2024-05-09T11:49:30.852Z,495.00
2024-05-09T11:50:35.293Z,496.00
2024-05-09T11:51:31.787Z,497.00
2024-05-09T11:52:30.755Z,496.00
2024-05-09T11:53:30.747Z,495.00
2024-05-09T11:54:30.826Z,496.00
2024-05-09T11:55:30.934Z,498.00
2024-05-09T11:56:30.776Z,500.00
2024-05-09T11:57:30.836Z,501.00
2024-05-09T11:58:30.791Z,502.00
2024-05-09T11:59:30.800Z,500.00
2024-05-09T12:00:36.621Z,500.00
2024-05-09T12:01:32.114Z,499.00
2024-05-09T12:02:30.879Z,499.00
2024-05-09T12:03:30.986Z,499.00
2024-05-09T12:04:30.898Z,498.00
2024-05-09T12:05:30.962Z,497.00
2024-05-09T12:06:30.902Z,499.00
2024-05-09T12:07:30.832Z,497.00
2024-05-09T12:08:30.814Z,498.00
2024-05-09T12:09:30.856Z,498.00
2024-05-09T12:10:33.422Z,500.00
2024-05-09T12:11:30.896Z,502.00
2024-05-09T12:12:30.904Z,502.00
2024-05-09T12:13:30.886Z,502.00
2024-05-09T12:14:30.801Z,500.00
2024-05-09T12:15:30.880Z,499.00
2024-05-09T12:16:30.921Z,497.00
2024-05-09T12:17:30.927Z,498.00
2024-05-09T12:18:30.918Z,497.00
2024-05-09T12:19:30.861Z,496.00
2024-05-09T12:20:36.243Z,494.00
2024-05-09T12:21:31.883Z,493.00
2024-05-09T12:22:30.825Z,492.00
2024-05-09T12:23:30.827Z,489.00
2024-05-09T12:24:30.886Z,489.00
2024-05-09T12:25:30.828Z,487.00
2024-05-09T12:26:30.848Z,485.00
2024-05-09T12:27:30.915Z,483.00
2024-05-09T12:28:30.883Z,482.00
2024-05-09T12:29:30.850Z,483.00
2024-05-09T12:30:36.445Z,487.00
2024-05-09T12:31:31.884Z,488.00
2024-05-09T12:32:30.940Z,488.00
2024-05-09T12:33:30.967Z,486.00
2024-05-09T12:34:30.859Z,484.00
2024-05-09T12:35:30.862Z,483.00
2024-05-09T12:36:30.917Z,483.00
2024-05-09T12:37:30.846Z,481.00
2024-05-09T12:38:30.846Z,478.00
2024-05-09T12:39:30.911Z,477.00
2024-05-09T12:40:35.838Z,476.00
2024-05-09T12:41:31.866Z,476.00
2024-05-09T12:42:33.264Z,474.00
2024-05-09T12:43:31.015Z,476.00
2024-05-09T12:44:30.867Z,475.00
2024-05-09T12:45:30.980Z,474.00
2024-05-09T12:46:30.920Z,474.00
2024-05-09T12:47:30.974Z,474.00
2024-05-09T12:48:30.959Z,474.00
2024-05-09T12:49:31.004Z,475.00
2024-05-09T12:50:33.159Z,475.00
2024-05-09T12:51:30.949Z,476.00
2024-05-09T12:52:30.882Z,478.00
2024-05-09T12:53:30.917Z,479.00
2024-05-09T12:54:30.910Z,477.00
2024-05-09T12:55:37.254Z,478.00
2024-05-09T12:56:31.903Z,475.00
2024-05-09T12:57:30.960Z,476.00
2024-05-09T12:58:30.905Z,476.00
2024-05-09T12:59:30.903Z,477.00
2024-05-09T13:00:33.841Z,477.00
2024-05-09T13:01:30.994Z,475.00
2024-05-09T13:02:31.069Z,471.00
2024-05-09T13:03:31.182Z,470.00
2024-05-09T13:04:31.069Z,472.00
2024-05-09T13:05:31.014Z,472.00
2024-05-09T13:06:30.938Z,471.00
2024-05-09T13:07:30.898Z,473.00
2024-05-09T13:08:30.898Z,473.00
2024-05-09T13:09:31.022Z,475.00
2024-05-09T13:10:32.851Z,475.00
2024-05-09T13:11:31.195Z,473.00
2024-05-09T13:12:31.234Z,474.00
2024-05-09T13:13:31.212Z,474.00
2024-05-09T13:14:31.236Z,470.00
2024-05-09T13:15:31.657Z,471.00
2024-05-09T13:16:31.383Z,472.00
2024-05-09T13:17:31.573Z,472.00
2024-05-09T13:18:31.490Z,471.00
2024-05-09T13:19:31.476Z,468.00
2024-05-09T13:20:34.048Z,468.00
2024-05-09T13:21:31.562Z,469.00
2024-05-09T13:22:31.458Z,468.00
2024-05-09T13:23:31.483Z,470.00
2024-05-09T13:24:31.528Z,470.00
2024-05-09T13:25:31.482Z,470.00
2024-05-09T13:26:31.470Z,472.00
2024-05-09T13:27:31.451Z,473.00
2024-05-09T13:28:31.650Z,472.00
2024-05-09T13:29:31.470Z,472.00
2024-05-09T13:30:38.927Z,471.00
2024-05-09T13:31:32.681Z,471.00
2024-05-09T13:32:31.522Z,468.00
2024-05-09T13:33:31.726Z,469.00
2024-05-09T13:34:31.519Z,469.00
2024-05-09T13:35:31.494Z,468.00
2024-05-09T13:36:31.563Z,468.00
2024-05-09T13:37:31.487Z,469.00
2024-05-09T13:38:31.506Z,465.00
2024-05-09T13:39:31.513Z,463.00
2024-05-09T13:40:34.627Z,463.00
2024-05-09T13:41:31.512Z,462.00
2024-05-09T13:42:31.556Z,461.00
2024-05-09T13:43:31.614Z,462.00
2024-05-09T13:44:31.513Z,463.00
2024-05-09T13:45:31.598Z,463.00
2024-05-09T13:46:31.552Z,465.00
2024-05-09T13:47:31.581Z,467.00
2024-05-09T13:48:31.650Z,468.00
2024-05-09T13:49:31.505Z,467.00
2024-05-09T13:50:35.458Z,466.00
2024-05-09T13:51:32.567Z,467.00
2024-05-09T13:52:31.535Z,465.00
2024-05-09T13:53:31.514Z,466.00
2024-05-09T13:54:31.543Z,464.00
2024-05-09T13:55:31.561Z,464.00
2024-05-09T13:56:31.522Z,465.00
2024-05-09T13:57:31.577Z,464.00
2024-05-09T13:58:31.594Z,463.00
2024-05-09T13:59:31.542Z,463.00
2024-05-09T14:00:42.377Z,465.00
2024-05-09T14:01:32.675Z,464.00
2024-05-09T14:02:31.634Z,462.00
2024-05-09T14:03:31.748Z,464.00
2024-05-09T14:04:31.638Z,464.00
2024-05-09T14:05:31.616Z,464.00
2024-05-09T14:06:31.674Z,466.00
2024-05-09T14:07:31.538Z,464.00
2024-05-09T14:08:31.556Z,463.00
2024-05-09T14:09:31.595Z,463.00
2024-05-09T14:10:32.453Z,464.00
2024-05-09T14:11:31.674Z,462.00
2024-05-09T14:12:31.629Z,461.00
2024-05-09T14:13:31.667Z,462.00
2024-05-09T14:14:31.697Z,465.00
2024-05-09T14:15:31.790Z,466.00
2024-05-09T14:16:31.956Z,468.00
2024-05-09T14:17:32.054Z,468.00
2024-05-09T14:18:32.039Z,468.00
2024-05-09T14:19:31.992Z,467.00
2024-05-09T14:20:32.680Z,468.00
2024-05-09T14:21:32.078Z,469.00
2024-05-09T14:22:32.121Z,469.00
2024-05-09T14:23:32.187Z,468.00
2024-05-09T14:24:32.226Z,468.00
2024-05-09T14:25:33.089Z,466.00
2024-05-09T14:26:32.317Z,465.00
2024-05-09T14:27:32.411Z,464.00
2024-05-09T14:28:32.637Z,464.00
2024-05-09T14:29:32.471Z,463.00
2024-05-09T14:30:37.089Z,462.00
2024-05-09T14:31:36.951Z,462.00
2024-05-09T14:32:33.678Z,461.00
2024-05-09T14:33:32.679Z,460.00
2024-05-09T14:34:32.631Z,461.00
2024-05-09T14:35:32.553Z,461.00
2024-05-09T14:36:32.643Z,463.00
2024-05-09T14:37:34.139Z,464.00
2024-05-09T14:38:32.544Z,465.00
2024-05-09T14:39:32.609Z,466.00
2024-05-09T14:40:40.342Z,464.00
2024-05-09T14:41:33.553Z,466.00
2024-05-09T14:42:32.656Z,464.00
2024-05-09T14:43:32.653Z,463.00
2024-05-09T14:44:32.572Z,463.00
2024-05-09T14:45:32.588Z,465.00
2024-05-09T14:46:32.615Z,466.00
2024-05-09T14:47:32.659Z,465.00
2024-05-09T14:48:32.915Z,466.00
2024-05-09T14:49:32.603Z,464.00
2024-05-09T14:50:37.152Z,464.00
2024-05-09T14:51:33.661Z,464.00
2024-05-09T14:52:32.614Z,466.00
2024-05-09T14:53:32.612Z,468.00
2024-05-09T14:54:32.687Z,469.00
2024-05-09T14:55:32.661Z,470.00
2024-05-09T14:56:32.615Z,468.00
2024-05-09T14:57:32.655Z,466.00
2024-05-09T14:58:32.664Z,467.00
2024-05-09T14:59:32.621Z,466.00
2024-05-09T15:00:35.764Z,468.00
2024-05-09T15:01:32.751Z,468.00
2024-05-09T15:02:32.854Z,468.00
2024-05-09T15:03:32.832Z,466.00
2024-05-09T15:04:32.766Z,466.00
2024-05-09T15:05:32.708Z,466.00
2024-05-09T15:06:32.724Z,467.00
2024-05-09T15:07:32.664Z,467.00
2024-05-09T15:08:37.328Z,469.00
2024-05-09T15:09:32.762Z,469.00
2024-05-09T15:10:35.745Z,468.00
2024-05-09T15:11:32.721Z,468.00
2024-05-09T15:12:32.752Z,467.00
2024-05-09T15:13:32.901Z,467.00
2024-05-09T15:14:32.692Z,465.00
2024-05-09T15:15:32.702Z,466.00
2024-05-09T15:16:32.747Z,465.00
2024-05-09T15:17:32.780Z,464.00
2024-05-09T15:18:32.805Z,466.00
2024-05-09T15:19:32.934Z,466.00
2024-05-09T15:20:35.942Z,467.00
2024-05-09T15:21:32.733Z,468.00
2024-05-09T15:22:32.690Z,469.00
2024-05-09T15:23:32.683Z,467.00
2024-05-09T15:24:32.743Z,468.00
2024-05-09T15:25:32.706Z,468.00
2024-05-09T15:26:32.698Z,465.00
2024-05-09T15:27:32.754Z,467.00
2024-05-09T15:28:32.760Z,468.00
2024-05-09T15:29:32.706Z,469.00
2024-05-09T15:30:34.237Z,468.00
2024-05-09T15:31:32.798Z,466.00
2024-05-09T15:32:32.867Z,466.00
2024-05-09T15:33:32.807Z,466.00
2024-05-09T15:34:33.019Z,465.00
2024-05-09T15:35:32.811Z,464.00
2024-05-09T15:36:32.959Z,459.00
2024-05-09T15:37:32.969Z,460.00
2024-05-09T15:38:32.973Z,461.00
2024-05-09T15:39:33.065Z,460.00
2024-05-09T15:40:39.350Z,460.00
2024-05-09T15:41:34.092Z,461.00
2024-05-09T15:42:33.156Z,463.00
2024-05-09T15:43:33.180Z,463.00
2024-05-09T15:44:33.070Z,464.00
2024-05-09T15:45:33.345Z,464.00
2024-05-09T15:46:33.175Z,467.00
2024-05-09T15:47:33.172Z,467.00
2024-05-09T15:48:33.333Z,467.00
2024-05-09T15:49:33.328Z,466.00
2024-05-09T15:50:38.636Z,465.00
2024-05-09T15:51:34.160Z,464.00
2024-05-09T15:52:33.128Z,464.00
2024-05-09T15:53:33.131Z,463.00
2024-05-09T15:54:33.164Z,461.00
2024-05-09T15:55:33.147Z,460.00
2024-05-09T15:56:33.128Z,459.00
2024-05-09T15:57:33.249Z,460.00
2024-05-09T15:58:33.136Z,460.00
2024-05-09T15:59:33.187Z,461.00
2024-05-09T16:00:38.059Z,461.00
2024-05-09T16:01:34.313Z,462.00
2024-05-09T16:02:33.358Z,460.00
2024-05-09T16:03:33.497Z,461.00
2024-05-09T16:04:33.316Z,462.00
2024-05-09T16:05:33.548Z,464.00
2024-05-09T16:06:33.213Z,462.00
2024-05-09T16:07:33.183Z,463.00
2024-05-09T16:08:33.203Z,462.00
2024-05-09T16:09:33.250Z,463.00
2024-05-09T16:10:34.685Z,462.00
2024-05-09T16:11:33.240Z,463.00
2024-05-09T16:12:33.318Z,464.00
2024-05-09T16:13:33.262Z,464.00
2024-05-09T16:14:33.271Z,463.00
2024-05-09T16:15:33.385Z,465.00
2024-05-09T16:16:33.462Z,465.00
2024-05-09T16:17:33.530Z,464.00
2024-05-09T16:18:33.556Z,463.00
2024-05-09T16:19:33.508Z,462.00
2024-05-09T16:20:39.241Z,462.00
2024-05-09T16:21:34.656Z,463.00
2024-05-09T16:22:33.595Z,461.00
2024-05-09T16:23:33.618Z,461.00
2024-05-09T16:25:07.090Z,456.00
2024-05-09T16:26:06.944Z,457.00
2024-05-09T16:27:06.948Z,457.00
2024-05-09T16:28:10.023Z,457.00
2024-05-09T16:29:06.934Z,461.00
2024-05-09T16:30:09.302Z,465.00
2024-05-09T16:31:07.976Z,463.00
2024-05-09T16:32:06.973Z,464.00
2024-05-09T16:33:07.163Z,462.00
2024-05-09T16:34:07.005Z,463.00
2024-05-09T16:35:07.050Z,461.00
2024-05-09T16:36:06.963Z,460.00
2024-05-09T16:37:06.979Z,462.00
2024-05-09T16:38:06.985Z,463.00
2024-05-09T16:39:07.005Z,463.00
2024-05-09T16:40:09.941Z,462.00
2024-05-09T16:41:08.019Z,461.00
2024-05-09T16:42:07.069Z,459.00
2024-05-09T16:43:07.447Z,457.00
2024-05-09T16:44:06.990Z,456.00
2024-05-09T16:45:06.989Z,459.00
2024-05-09T16:46:07.042Z,459.00
2024-05-09T16:47:07.001Z,458.00
2024-05-09T16:48:07.258Z,458.00
2024-05-09T16:49:07.053Z,458.00
2024-05-09T16:50:08.639Z,457.00
2024-05-09T16:51:07.064Z,456.00
2024-05-09T16:52:07.165Z,456.00
2024-05-09T16:53:07.416Z,456.00
2024-05-09T16:54:07.053Z,455.00
2024-05-09T16:55:07.091Z,455.00
2024-05-09T16:56:07.068Z,455.00
2024-05-09T16:57:07.072Z,457.00
2024-05-09T16:58:07.197Z,455.00
2024-05-09T16:59:07.157Z,453.00
2024-05-09T17:00:14.556Z,453.00
